Pagrindinis puslapis
METAR-TAF:

METAR-TAF

Oro uostai :

Buraida, Saudo Arabija

platuma: 26-18N, ilguma: 043-46E, Aukštis: 648 m

Dabartinis oras

Ataskaita buvo paskelbta 1 valandą ir 19 minutes, ne 12:00 UTC
Vėjas 4 kt iš Šiaurės/Šiaurės Vakarų
Temperatūra 27°C
Drėgmė 30%
Slėgis 1015 hPa
Matomumas 10 km arba daugiau
nėra debesų žemiau 1500 m ir nėra kamuolinių lietaus debesų

METAR: OEGS 281200Z 33004KT CAVOK 27/08 Q1015

Laikas: 16:19 (13:19 UTC)

Prognozė

Ataskaita buvo paskelbta 2 valandos ir 19 minutes, ne 11:00 UTC
Prognozė galioja nuo 28 metu 12 UTC su 29 metu 18 UTC
Vėjas 10 kt iš Pietų
Matomumas 10 km arba daugiau
nėra debesų žemiau 1500 m ir nėra kamuolinių lietaus debesų
Tapsmas
nuo 28 metu 18 UTC su 28 metu 20 UTC
Vėjas 3 kt nuo kintamojo kryptimis

TAF: OEGS 281100Z 2812/2918 18010KT CAVOK BECMG 2818/2820 VRB03KT

Orai ataskaitas ir orų prognozės (METAR, TAF).

turimą stotys yra geltonos ir raudonos taškus žemėlapyje.

Perkelti pele per norėdami pamatyti stoties vardą.

Tada spustelėkite, norėdami matyti oro stebėjimo ir prognozės.

Norėdami pakeisti žemėlapį: spustelėkite ant žalios mygtukų su juodo kryžiaus žemyn,; žalią mygtuką su brūkšneliu, jei norite nutolinti; arba žalių rodyklių gretimoms žemėlapius.


METAR-TAF: